Time;durP1;ratioP1;P1;durP2;ratioP2;P2;SDS_P1;SDS_P2;PMS_P1;PMS_P2;Temp;Humidity;BMP_temperature;BMP_pressure;BME280_temperature;BME280_humidity;BME280_pressure;Samples;Min_cycle;Max_cycle;Signal;HPM_P1;HPM_P2
2021/12/25 00:01:20;;;;;;;13.38;7.88;;;5.30;42.50;;;;;;5033705;28;20039;-83
2021/12/25 00:03:47;;;;;;;13.98;8.30;;;5.30;42.20;;;;;;5033233;28;20018;-89
2021/12/25 00:06:13;;;;;;;11.05;7.30;;;5.30;42.20;;;;;;5760586;23;20829;-82
2021/12/25 00:08:40;;;;;;;11.60;7.63;;;5.30;42.10;;;;;;5265728;23;20040;-84
2021/12/25 00:11:07;;;;;;;13.93;8.70;;;5.30;41.90;;;;;;5016004;28;20014;-79
2021/12/25 00:13:35;;;;;;;13.95;7.50;;;5.30;41.90;;;;;;5420293;22;20058;-81
2021/12/25 00:16:01;;;;;;;12.43;7.88;;;5.30;42.00;;;;;;5090400;23;20084;-84
2021/12/25 00:18:27;;;;;;;13.02;8.00;;;5.40;42.10;;;;;;5037453;28;20035;-81
2021/12/25 00:20:53;;;;;;;14.38;8.00;;;5.30;42.00;;;;;;5032570;28;20045;-80
2021/12/25 00:23:19;;;;;;;13.40;7.82;;;5.30;42.00;;;;;;5033584;28;20041;-88
2021/12/25 00:25:50;;;;;;;12.85;7.78;;;5.30;42.00;;;;;;5029495;28;20022;-92
2021/12/25 00:31:21;;;;;;;11.43;7.07;;;5.30;42.20;;;;;;5014734;28;20028;-81
2021/12/25 00:33:55;;;;;;;13.10;7.25;;;5.30;42.10;;;;;;4997906;28;20085;-86
2021/12/25 00:36:23;;;;;;;12.98;6.90;;;5.30;42.20;;;;;;5029061;28;20064;-87
2021/12/25 00:38:50;;;;;;;10.27;6.70;;;5.30;42.20;;;;;;5033025;28;20025;-81
2021/12/25 00:41:19;;;;;;;13.02;7.13;;;5.40;42.20;;;;;;5057499;23;20053;-81
2021/12/25 00:43:47;;;;;;;12.18;7.57;;;5.40;42.10;;;;;;5013048;28;20026;-82
2021/12/25 00:46:13;;;;;;;12.30;7.40;;;5.40;42.00;;;;;;5031974;28;20109;-86
2021/12/25 00:48:39;;;;;;;12.23;7.28;;;5.40;41.70;;;;;;5013883;28;20113;-87
2021/12/25 00:51:05;;;;;;;15.10;7.75;;;5.50;41.80;;;;;;5012628;28;20018;-82
2021/12/25 00:53:31;;;;;;;11.13;7.43;;;5.50;41.70;;;;;;5014443;28;20021;-89
2021/12/25 00:55:58;;;;;;;11.20;7.47;;;5.40;41.50;;;;;;5194895;23;20072;-83
2021/12/25 00:58:24;;;;;;;12.35;8.10;;;5.50;41.40;;;;;;5016479;28;20056;-90
2021/12/25 01:00:51;;;;;;;15.07;7.43;;;5.40;41.40;;;;;;4997212;28;20049;-90
2021/12/25 01:03:18;;;;;;;10.15;7.10;;;5.50;41.30;;;;;;5012457;28;20033;-79
2021/12/25 01:05:44;;;;;;;10.90;7.57;;;5.40;41.30;;;;;;5028455;28;20033;-90
2021/12/25 01:08:10;;;;;;;12.88;7.55;;;5.40;41.80;;;;;;5011493;28;20092;-84
2021/12/25 01:10:37;;;;;;;11.55;7.70;;;5.40;41.20;;;;;;5011504;28;20041;-81
2021/12/25 01:13:21;;;;;;;14.02;7.80;;;5.40;41.20;;;;;;5010725;28;20052;-78
2021/12/25 01:21:04;;;;;;;11.95;7.55;;;5.30;41.30;;;;;;5008461;28;20064;-84
2021/12/25 01:40:20;;;;;;;14.80;7.90;;;5.50;41.10;;;;;;4953471;29;20055;-90
2021/12/25 01:48:50;;;;;;;;;;;5.40;41.00;;;;;;4950007;29;20031;-89
2021/12/25 01:51:16;;;;;;;12.63;7.63;;;5.40;41.00;;;;;;4957985;28;19925;-79
2021/12/25 01:53:43;;;;;;;13.07;7.55;;;5.40;41.20;;;;;;4957705;28;20028;-80
2021/12/25 01:56:10;;;;;;;12.82;7.55;;;5.40;41.10;;;;;;4944952;28;20038;-87
2021/12/25 01:58:36;;;;;;;12.32;7.70;;;5.50;41.00;;;;;;4954634;29;20112;-84
2021/12/25 02:01:05;;;;;;;13.52;8.18;;;5.50;41.00;;;;;;4948661;29;20027;-88
2021/12/25 02:03:31;;;;;;;15.43;8.20;;;5.40;41.00;;;;;;4932844;29;20035;-89
2021/12/25 02:05:59;;;;;;;12.52;8.32;;;5.40;41.10;;;;;;4947095;29;20529;-84
2021/12/25 02:08:31;;;;;;;12.40;8.20;;;5.50;40.90;;;;;;4932356;29;20035;-90
2021/12/25 02:10:57;;;;;;;13.23;8.43;;;5.50;41.00;;;;;;4931120;29;20293;-90
2021/12/25 02:13:24;;;;;;;15.70;9.10;;;5.50;40.90;;;;;;4936178;29;20039;-86
2021/12/25 02:15:53;;;;;;;14.07;8.32;;;5.60;40.80;;;;;;4974309;28;20069;-89
2021/12/25 02:18:43;;;;;;;13.43;8.77;;;5.60;40.70;;;;;;5002173;28;20030;-85
2021/12/25 02:21:19;;;;;;;14.82;9.25;;;5.60;40.70;;;;;;5006856;28;20014;-91
2021/12/25 02:23:46;;;;;;;17.17;9.40;;;5.60;40.70;;;;;;4991803;28;20021;-88
2021/12/25 02:26:12;;;;;;;14.57;8.90;;;5.70;40.70;;;;;;5025353;28;20034;-89
2021/12/25 02:28:39;;;;;;;15.30;8.88;;;5.70;40.80;;;;;;4984951;28;20040;-86
2021/12/25 02:31:10;;;;;;;14.80;9.18;;;5.70;40.80;;;;;;5000652;28;20097;-87
2021/12/25 02:33:38;;;;;;;13.05;8.95;;;5.70;40.90;;;;;;4998678;28;20053;-87
2021/12/25 02:36:05;;;;;;;15.40;9.23;;;5.70;40.80;;;;;;5019837;28;20132;-91
2021/12/25 02:38:33;;;;;;;14.88;9.05;;;5.70;40.80;;;;;;5006426;28;20060;-95
2021/12/25 02:41:00;;;;;;;12.23;8.50;;;5.70;40.90;;;;;;5004210;28;20053;-86
2021/12/25 02:43:26;;;;;;;16.33;9.15;;;5.70;41.00;;;;;;5005418;28;20082;-93
2021/12/25 02:45:55;;;;;;;16.63;8.98;;;5.70;41.10;;;;;;5019252;28;20045;-86
2021/12/25 02:48:22;;;;;;;14.48;8.85;;;5.70;41.00;;;;;;5002527;28;20065;-90
2021/12/25 02:50:49;;;;;;;18.33;8.30;;;5.70;41.10;;;;;;5006287;28;20034;-94
2021/12/25 02:53:16;;;;;;;13.57;8.60;;;5.70;41.20;;;;;;5002586;28;20042;-85
2021/12/25 02:55:45;;;;;;;14.40;8.50;;;5.70;41.20;;;;;;5005753;28;20065;-85
2021/12/25 02:58:15;;;;;;;15.30;8.75;;;5.80;41.20;;;;;;5005192;28;20084;-85
2021/12/25 03:00:54;;;;;;;16.67;9.25;;;5.80;41.30;;;;;;5011149;28;21408;-92
2021/12/25 03:03:20;;;;;;;14.90;8.95;;;5.90;41.10;;;;;;5004802;28;20030;-89
2021/12/25 03:05:46;;;;;;;16.27;8.60;;;5.90;40.90;;;;;;4986407;28;20030;-92
2021/12/25 03:08:14;;;;;;;14.52;9.35;;;5.90;40.90;;;;;;5001865;28;20072;-91
2021/12/25 03:11:03;;;;;;;15.70;8.45;;;5.90;41.00;;;;;;5003319;28;20037;-88
2021/12/25 03:13:42;;;;;;;13.20;8.45;;;5.90;41.00;;;;;;5018094;28;20550;-89
2021/12/25 03:16:10;;;;;;;15.30;8.80;;;5.90;41.00;;;;;;5000292;28;20030;-89
2021/12/25 03:18:42;;;;;;;18.25;10.15;;;5.90;41.00;;;;;;5002586;28;20040;-86
2021/12/25 03:21:09;;;;;;;13.52;8.48;;;5.90;41.10;;;;;;5004228;28;20032;-91
2021/12/25 03:23:36;;;;;;;14.57;8.68;;;5.90;41.20;;;;;;5003698;28;20026;-82
2021/12/25 03:26:04;;;;;;;17.17;8.55;;;5.90;41.40;;;;;;4999122;28;20136;-87
2021/12/25 03:28:33;;;;;;;15.02;9.23;;;5.90;41.30;;;;;;5000684;28;20030;-88
2021/12/25 03:31:04;;;;;;;12.30;7.82;;;5.90;41.40;;;;;;4984099;28;20021;-87
2021/12/25 03:33:31;;;;;;;12.93;7.93;;;5.90;41.40;;;;;;5019212;28;20029;-87
2021/12/25 03:35:57;;;;;;;14.02;8.13;;;5.90;41.40;;;;;;5004667;28;20049;-86
2021/12/25 03:38:26;;;;;;;13.98;8.48;;;5.90;41.50;;;;;;5026311;28;20038;-85
2021/12/25 03:40:53;;;;;;;12.30;7.90;;;6.00;41.50;;;;;;5005364;28;20134;-91
2021/12/25 03:43:20;;;;;;;14.07;7.85;;;6.00;41.50;;;;;;4991808;28;20181;-86
2021/12/25 03:45:47;;;;;;;13.70;7.97;;;6.00;41.50;;;;;;5024701;28;20036;-93
2021/12/25 03:59:23;;;;;;;13.57;8.10;;;6.20;41.50;;;;;;5016549;28;20038;-87
2021/12/25 04:01:57;;;;;;;13.73;7.32;;;6.20;41.50;;;;;;5000938;28;20033;-90
2021/12/25 04:07:02;;;;;;;12.55;8.18;;;6.10;41.20;;;;;;5005472;28;20030;-89
2021/12/25 04:09:32;;;;;;;14.88;8.13;;;6.10;41.90;;;;;;5024154;28;20788;-86
2021/12/25 04:12:05;;;;;;;12.73;7.68;;;6.10;41.50;;;;;;4988293;28;20052;-88
2021/12/25 04:14:33;;;;;;;13.55;7.32;;;6.20;41.50;;;;;;5001685;28;20033;-88
2021/12/25 04:16:59;;;;;;;12.90;7.78;;;6.20;41.60;;;;;;5027426;28;20054;-84
2021/12/25 04:19:26;;;;;;;15.30;7.65;;;6.20;41.60;;;;;;5016174;28;20013;-84
2021/12/25 04:22:00;;;;;;;11.00;7.30;;;6.20;41.60;;;;;;5012951;28;20728;-81
2021/12/25 04:24:30;;;;;;;10.77;7.43;;;6.20;41.50;;;;;;5014996;28;20124;-85
2021/12/25 04:26:56;;;;;;;16.45;7.78;;;6.20;41.50;;;;;;5032666;28;20077;-90
2021/12/25 05:02:02;;;;;;;10.80;6.97;;;6.30;41.10;;;;;;5007307;28;20049;-93
2021/12/25 05:04:53;;;;;;;10.20;6.90;;;6.30;41.20;;;;;;4987097;28;20057;-88
2021/12/25 05:07:40;;;;;;;10.52;7.18;;;6.30;41.30;;;;;;4992146;28;20061;-87
2021/12/25 05:10:06;;;;;;;10.73;6.63;;;6.30;41.40;;;;;;4985067;28;20026;-89
2021/12/25 05:12:32;;;;;;;12.20;7.03;;;6.30;41.40;;;;;;4965612;28;20034;-86
2021/12/25 05:14:59;;;;;;;10.98;6.45;;;6.40;41.40;;;;;;4964211;28;20116;-87
2021/12/25 05:17:25;;;;;;;10.23;6.35;;;6.30;41.50;;;;;;4983913;28;20030;-89
2021/12/25 05:19:52;;;;;;;8.55;6.40;;;6.40;41.60;;;;;;4979664;28;20726;-87
2021/12/25 05:22:20;;;;;;;9.50;6.80;;;6.50;41.60;;;;;;4982348;28;20082;-90
2021/12/25 05:24:47;;;;;;;11.10;6.72;;;6.50;41.60;;;;;;4983020;28;20057;-87
2021/12/25 05:27:14;;;;;;;11.50;6.93;;;6.50;41.50;;;;;;4985485;28;20066;-89
2021/12/25 05:29:45;;;;;;;11.40;6.82;;;6.60;41.60;;;;;;4979589;28;20074;-87
2021/12/25 05:32:17;;;;;;;13.65;6.93;;;6.60;41.50;;;;;;4980521;28;20031;-80
2021/12/25 05:35:06;;;;;;;10.77;6.85;;;6.60;41.30;;;;;;4942530;29;20036;-89
2021/12/25 05:38:14;;;;;;;13.80;7.00;;;6.60;41.30;;;;;;4930608;29;20087;-90
2021/12/25 05:40:46;;;;;;;;;;;6.60;41.40;;;;;;4926259;29;20156;-91
2021/12/25 05:43:12;;;;;;;;;;;6.60;41.30;;;;;;4942325;29;19948;-84
2021/12/25 05:45:39;;;;;;;;;;;6.60;41.30;;;;;;4927126;29;19961;-87
2021/12/25 05:48:20;;;;;;;10.25;6.43;;;6.60;41.20;;;;;;4943567;29;19918;-83
2021/12/25 05:51:07;;;;;;;10.52;6.82;;;6.50;41.30;;;;;;4944177;29;20047;-92
2021/12/25 05:53:59;;;;;;;10.50;6.55;;;6.50;42.10;;;;;;4942182;29;20047;-88
2021/12/25 05:57:04;;;;;;;10.77;6.80;;;6.50;41.60;;;;;;4884775;29;20076;-88
2021/12/25 06:00:05;;;;;;;9.13;6.22;;;6.60;41.60;;;;;;4879197;29;20037;-91
2021/12/25 06:02:44;;;;;;;10.35;6.50;;;6.60;41.60;;;;;;4885353;29;20127;-90
2021/12/25 06:05:18;;;;;;;13.18;7.30;;;6.60;41.60;;;;;;4886425;29;20037;-89
2021/12/25 06:07:45;;;;;;;10.23;7.07;;;6.60;41.80;;;;;;4886699;29;20122;-92
2021/12/25 06:10:11;;;;;;;8.52;6.38;;;6.60;41.80;;;;;;4887928;29;20097;-87
2021/12/25 06:12:40;;;;;;;8.98;6.40;;;6.70;41.70;;;;;;4925489;28;20103;-91
2021/12/25 06:15:09;;;;;;;10.50;6.38;;;6.70;41.80;;;;;;4925372;29;20067;-91
2021/12/25 06:17:48;;;;;;;10.60;6.57;;;6.80;41.70;;;;;;4926085;28;20032;-89
2021/12/25 06:20:23;;;;;;;9.33;6.97;;;6.70;41.50;;;;;;4939520;28;20047;-82
2021/12/25 06:23:08;;;;;;;11.52;6.95;;;6.80;41.60;;;;;;5402914;23;20335;-94
2021/12/25 06:25:47;;;;;;;13.52;7.15;;;6.80;41.60;;;;;;5288179;22;20025;-87
2021/12/25 06:28:27;;;;;;;9.43;6.65;;;6.80;41.60;;;;;;5202097;22;20487;-86
2021/12/25 06:31:12;;;;;;;11.85;6.50;;;6.80;41.70;;;;;;5021770;28;20084;-87
2021/12/25 06:33:58;;;;;;;;;;;6.70;41.70;;;;;;5018334;28;20058;-91
2021/12/25 06:36:59;;;;;;;12.80;6.55;;;6.80;41.50;;;;;;5007955;28;20008;-84
2021/12/25 06:39:39;;;;;;;11.52;6.90;;;6.80;41.50;;;;;;4972915;28;20030;-84
2021/12/25 06:42:10;;;;;;;9.52;6.43;;;6.80;41.50;;;;;;4970922;28;20034;-85
2021/12/25 06:44:37;;;;;;;12.38;7.00;;;6.80;41.60;;;;;;4983999;28;20492;-85
2021/12/25 06:47:03;;;;;;;9.50;6.80;;;6.80;41.70;;;;;;4983139;28;20038;-86
2021/12/25 06:49:31;;;;;;;10.65;6.40;;;6.70;41.60;;;;;;4984293;28;20541;-91
2021/12/25 06:52:36;;;;;;;10.48;7.07;;;6.70;41.70;;;;;;4993578;28;20033;-85
2021/12/25 06:55:17;;;;;;;12.00;7.25;;;6.80;42.00;;;;;;4987582;28;20081;-90
2021/12/25 06:58:00;;;;;;;9.38;6.50;;;6.80;42.10;;;;;;4987116;28;20510;-86
2021/12/25 07:00:27;;;;;;;10.18;6.63;;;6.90;42.20;;;;;;4985342;28;20029;-89
2021/12/25 07:02:55;;;;;;;13.40;7.30;;;6.90;42.10;;;;;;4998769;28;20034;-86
2021/12/25 07:05:53;;;;;;;11.20;7.45;;;6.90;42.10;;;;;;4957987;28;20035;-86
2021/12/25 07:08:45;;;;;;;9.75;6.90;;;7.00;42.20;;;;;;4937425;29;20506;-86
2021/12/25 07:11:17;;;;;;;11.18;7.10;;;7.00;42.20;;;;;;4924509;29;20156;-87
2021/12/25 07:14:01;;;;;;;11.07;7.28;;;7.10;42.20;;;;;;4927296;29;20411;-86
2021/12/25 07:16:46;;;;;;;10.57;6.40;;;7.10;42.20;;;;;;4918800;29;20042;-88
2021/12/25 07:19:44;;;;;;;11.52;6.78;;;7.10;42.30;;;;;;4905651;29;20044;-85
2021/12/25 07:22:22;;;;;;;12.10;6.93;;;7.10;42.30;;;;;;4912150;29;20055;-89
2021/12/25 07:25:07;;;;;;;9.48;6.38;;;7.10;42.30;;;;;;4930086;29;20028;-88
2021/12/25 07:27:57;;;;;;;14.82;8.55;;;7.10;42.40;;;;;;4914676;29;20142;-87
2021/12/25 07:30:23;;;;;;;10.55;7.13;;;7.10;42.50;;;;;;4929420;29;20118;-89
2021/12/25 07:32:49;;;;;;;10.23;7.03;;;7.10;42.50;;;;;;4914704;29;20040;-87
2021/12/25 07:35:15;;;;;;;12.00;7.80;;;7.10;42.50;;;;;;4929725;29;20574;-87
2021/12/25 07:37:41;;;;;;;10.18;7.00;;;7.00;42.40;;;;;;4934459;29;20047;-89
2021/12/25 07:40:09;;;;;;;11.73;7.97;;;7.10;42.50;;;;;;4934856;29;20197;-88
2021/12/25 07:42:35;;;;;;;11.48;7.50;;;7.10;42.50;;;;;;4931257;29;20047;-85
2021/12/25 07:45:26;;;;;;;11.93;7.18;;;7.10;42.60;;;;;;4959095;28;20041;-91
2021/12/25 07:47:59;;;;;;;9.65;6.13;;;7.00;44.60;;;;;;4974902;28;20048;-87
2021/12/25 07:50:27;;;;;;;10.75;6.85;;;6.90;47.30;;;;;;4989550;28;20037;-87
2021/12/25 07:52:53;;;;;;;7.85;5.88;;;6.90;49.00;;;;;;4990975;28;20065;-92
2021/12/25 07:55:19;;;;;;;14.20;6.78;;;6.90;50.00;;;;;;5006242;28;20404;-87
2021/12/25 07:57:45;;;;;;;10.95;7.35;;;7.00;50.80;;;;;;4975633;28;20037;-89
2021/12/25 08:00:13;;;;;;;10.35;6.53;;;7.10;51.10;;;;;;4994838;28;20037;-85
2021/12/25 08:02:40;;;;;;;12.43;6.43;;;7.10;51.40;;;;;;4992895;28;20034;-87
2021/12/25 08:05:07;;;;;;;9.45;6.35;;;7.20;51.50;;;;;;4977114;28;20030;-85
2021/12/25 08:07:33;;;;;;;11.10;7.03;;;7.30;51.60;;;;;;5009958;28;20088;-87
2021/12/25 08:10:12;;;;;;;11.20;7.20;;;7.30;51.60;;;;;;5003343;28;20362;-88
2021/12/25 08:12:57;;;;;;;11.00;7.13;;;7.40;51.50;;;;;;4981842;28;20042;-88
2021/12/25 08:15:26;;;;;;;10.20;6.78;;;7.40;51.50;;;;;;4979240;28;20531;-88
2021/12/25 08:17:53;;;;;;;10.80;6.90;;;7.50;51.50;;;;;;5011310;28;20026;-90
2021/12/25 08:20:34;;;;;;;11.02;6.70;;;7.50;51.50;;;;;;4988012;28;20045;-90
2021/12/25 08:23:19;;;;;;;10.52;6.90;;;7.60;51.50;;;;;;5002643;28;20049;-89
2021/12/25 08:26:14;;;;;;;10.32;6.50;;;7.60;51.40;;;;;;4985228;28;20591;-87
2021/12/25 08:29:13;;;;;;;10.25;6.65;;;7.70;51.30;;;;;;4970466;28;20517;-90
2021/12/25 08:31:58;;;;;;;11.68;6.93;;;7.70;51.40;;;;;;5006680;28;20351;-91
2021/12/25 08:34:50;;;;;;;10.95;6.93;;;7.80;51.50;;;;;;5001979;28;20452;-86
2021/12/25 08:37:26;;;;;;;12.27;7.70;;;7.80;51.50;;;;;;4991660;28;20029;-83
2021/12/25 08:39:53;;;;;;;10.65;6.75;;;7.80;51.40;;;;;;4983404;28;20037;-79
2021/12/25 08:42:21;;;;;;;11.73;6.80;;;7.90;51.40;;;;;;5004472;28;20504;-83
2021/12/25 08:47:26;;;;;;;13.10;7.03;;;7.90;51.30;;;;;;5003968;28;20587;-83
2021/12/25 08:49:52;;;;;;;11.35;7.32;;;8.00;51.70;;;;;;5002051;28;20031;-82
2021/12/25 08:52:19;;;;;;;10.98;7.18;;;8.00;52.00;;;;;;5003487;28;20041;-79
2021/12/25 08:54:48;;;;;;;10.73;6.60;;;8.00;51.70;;;;;;5003272;28;20077;-78
2021/12/25 08:57:16;;;;;;;12.63;7.05;;;8.00;52.40;;;;;;4985464;28;20525;-80
2021/12/25 08:59:43;;;;;;;13.75;7.93;;;8.10;52.50;;;;;;5010556;28;20045;-81
2021/12/25 09:02:13;;;;;;;11.40;7.75;;;8.10;52.60;;;;;;5016432;28;20034;-84
2021/12/25 09:04:41;;;;;;;14.45;8.13;;;8.00;52.40;;;;;;5015320;28;20068;-83
2021/12/25 09:07:07;;;;;;;11.32;7.07;;;8.00;52.40;;;;;;4979791;28;20048;-83
2021/12/25 09:09:34;;;;;;;12.93;8.00;;;7.90;52.50;;;;;;4997124;28;20566;-82
2021/12/25 09:12:00;;;;;;;11.65;8.27;;;7.90;52.70;;;;;;5011702;28;20034;-81
2021/12/25 09:14:26;;;;;;;13.07;8.35;;;7.90;52.80;;;;;;5013273;28;20330;-80
2021/12/25 09:16:53;;;;;;;14.35;8.15;;;7.90;52.80;;;;;;4997247;28;20696;-81
2021/12/25 09:19:19;;;;;;;13.93;8.65;;;7.90;52.80;;;;;;4979890;28;20498;-81
2021/12/25 09:21:45;;;;;;;13.23;8.30;;;7.90;52.90;;;;;;5013269;28;20038;-81
2021/12/25 09:24:11;;;;;;;12.07;7.97;;;7.90;53.00;;;;;;5014757;28;20049;-81
2021/12/25 09:26:37;;;;;;;10.65;7.45;;;7.90;53.00;;;;;;4998114;28;20050;-80
2021/12/25 09:29:04;;;;;;;15.95;8.50;;;7.90;52.90;;;;;;4975893;28;20046;-80
2021/12/25 09:31:31;;;;;;;15.27;8.63;;;7.90;53.00;;;;;;4975052;28;20077;-83
2021/12/25 09:33:57;;;;;;;16.30;8.38;;;7.90;53.00;;;;;;4959011;28;20041;-84
2021/12/25 09:36:23;;;;;;;14.52;8.60;;;7.90;53.20;;;;;;4957431;28;20477;-80
2021/12/25 09:38:50;;;;;;;12.20;7.90;;;7.90;53.30;;;;;;4952383;28;20034;-81
2021/12/25 09:41:17;;;;;;;13.55;8.15;;;7.80;53.40;;;;;;4954101;28;20070;-79
2021/12/25 09:43:46;;;;;;;14.05;8.63;;;7.90;53.40;;;;;;4969421;28;20034;-81
2021/12/25 09:46:13;;;;;;;15.68;8.55;;;7.90;53.60;;;;;;4969206;28;20038;-84
2021/12/25 09:48:39;;;;;;;14.15;8.50;;;7.90;54.70;;;;;;4971297;28;20062;-79
2021/12/25 09:51:06;;;;;;;12.90;7.70;;;8.00;54.40;;;;;;4969025;28;20034;-81
2021/12/25 09:53:32;;;;;;;11.82;7.18;;;7.90;54.70;;;;;;4952455;28;20062;-80
2021/12/25 09:56:01;;;;;;;14.05;8.48;;;8.00;55.00;;;;;;4972207;28;20050;-81
2021/12/25 09:58:28;;;;;;;16.27;9.25;;;8.10;57.10;;;;;;4950566;28;20066;-80
2021/12/25 10:00:57;;;;;;;23.20;10.07;;;8.10;55.70;;;;;;4965915;28;20105;-81
2021/12/25 10:03:43;;;;;;;19.55;9.75;;;8.20;53.60;;;;;;4968072;28;20037;-80
2021/12/25 10:06:09;;;;;;;17.83;9.55;;;8.10;52.20;;;;;;4948914;28;20031;-81
2021/12/25 10:08:39;;;;;;;14.88;10.00;;;8.00;51.20;;;;;;4968973;28;20031;-81
2021/12/25 10:11:05;;;;;;;15.55;9.48;;;7.90;50.50;;;;;;4949244;28;20035;-82
2021/12/25 10:13:37;;;;;;;17.95;9.55;;;7.80;49.90;;;;;;4971361;28;20157;-82
2021/12/25 10:16:20;;;;;;;15.43;9.52;;;7.80;49.70;;;;;;4972127;28;20038;-81
2021/12/25 10:18:47;;;;;;;12.68;8.90;;;7.80;49.50;;;;;;4970102;28;20042;-80
2021/12/25 10:21:23;;;;;;;15.73;9.27;;;7.70;49.30;;;;;;4949939;28;20046;-84
2021/12/25 10:24:10;;;;;;;12.00;7.20;;;7.70;50.80;;;;;;4972917;28;20031;-80
2021/12/25 10:26:38;;;;;;;12.50;7.80;;;7.80;52.30;;;;;;4973967;28;20173;-80
2021/12/25 10:29:34;;;;;;;14.20;8.27;;;7.80;53.70;;;;;;4980277;28;20043;-80
2021/12/25 10:32:21;;;;;;;13.75;9.07;;;7.80;53.40;;;;;;4983027;28;20034;-82
2021/12/25 10:34:48;;;;;;;12.32;8.10;;;7.80;52.80;;;;;;4979051;28;20041;-79
2021/12/25 10:37:19;;;;;;;12.02;8.32;;;7.80;52.50;;;;;;4994889;28;20477;-79
2021/12/25 10:39:46;;;;;;;12.25;8.55;;;7.80;52.20;;;;;;4997115;28;20065;-81
2021/12/25 10:42:18;;;;;;;11.70;8.65;;;7.80;52.20;;;;;;4998553;28;20038;-79
2021/12/25 10:44:51;;;;;;;12.07;7.82;;;7.80;52.10;;;;;;4997200;28;20085;-80
2021/12/25 10:47:20;;;;;;;10.77;7.50;;;7.70;52.20;;;;;;4979473;28;20053;-81
2021/12/25 10:49:50;;;;;;;9.85;7.78;;;7.70;52.30;;;;;;4977990;28;20030;-81
2021/12/25 10:52:27;;;;;;;12.57;8.32;;;7.70;52.20;;;;;;4992894;28;20062;-80
2021/12/25 10:55:00;;;;;;;11.75;7.13;;;7.70;52.10;;;;;;4975792;28;20057;-79
2021/12/25 10:57:40;;;;;;;10.68;6.78;;;7.70;52.20;;;;;;4993608;28;20169;-79
2021/12/25 11:00:33;;;;;;;12.80;7.35;;;7.70;52.10;;;;;;4991652;28;20053;-80
2021/12/25 11:03:10;;;;;;;9.75;6.78;;;7.70;51.90;;;;;;4990000;28;20595;-84
2021/12/25 11:05:38;;;;;;;10.65;7.10;;;7.70;51.80;;;;;;4973695;28;20054;-81
2021/12/25 11:08:10;;;;;;;11.13;7.05;;;7.70;51.80;;;;;;4992045;28;20074;-80
2021/12/25 11:10:45;;;;;;;11.93;6.95;;;7.70;51.60;;;;;;4976374;28;20121;-81
2021/12/25 11:13:27;;;;;;;10.20;6.28;;;7.70;51.60;;;;;;4981103;28;20062;-79
2021/12/25 11:16:03;;;;;;;10.90;6.88;;;7.70;51.50;;;;;;4996002;28;20042;-80
2021/12/25 11:18:31;;;;;;;10.82;7.05;;;7.70;51.40;;;;;;4973759;28;20034;-80
2021/12/25 11:20:59;;;;;;;9.38;6.90;;;7.70;51.20;;;;;;4990952;28;20022;-79
2021/12/25 11:23:28;;;;;;;10.07;6.78;;;7.70;51.30;;;;;;4972068;28;20035;-79
2021/12/25 11:25:54;;;;;;;10.10;6.55;;;7.70;51.80;;;;;;4986409;28;20030;-79
2021/12/25 11:28:20;;;;;;;10.70;6.13;;;7.70;51.80;;;;;;4989955;28;20144;-79
2021/12/25 11:30:50;;;;;;;10.32;6.18;;;7.70;51.70;;;;;;4988538;28;20038;-79
2021/12/25 11:33:16;;;;;;;7.63;5.47;;;7.70;51.50;;;;;;4990396;28;20040;-78
2021/12/25 11:35:42;;;;;;;9.57;5.55;;;7.70;51.50;;;;;;4985292;28;20030;-78
2021/12/25 11:38:09;;;;;;;8.43;5.75;;;7.70;51.50;;;;;;4991238;28;20031;-77
2021/12/25 11:40:43;;;;;;;9.55;5.50;;;7.70;51.40;;;;;;4991054;28;20069;-78
2021/12/25 11:43:09;;;;;;;8.75;5.13;;;7.70;51.30;;;;;;4990180;28;20060;-79
2021/12/25 11:45:40;;;;;;;7.20;5.07;;;7.70;51.40;;;;;;4983673;28;20030;-77
2021/12/25 11:48:18;;;;;;;6.55;4.22;;;7.60;51.40;;;;;;4991579;28;20414;-80
2021/12/25 11:50:47;;;;;;;7.10;4.60;;;7.60;51.50;;;;;;4990737;28;20061;-78
2021/12/25 11:53:42;;;;;;;8.23;4.85;;;7.70;51.70;;;;;;4985176;28;20038;-78
2021/12/25 11:56:34;;;;;;;7.18;4.57;;;7.70;52.60;;;;;;4993503;28;20121;-79
2021/12/25 11:59:19;;;;;;;7.63;4.50;;;7.70;50.90;;;;;;4994905;28;20049;-84
2021/12/25 12:01:49;;;;;;;7.40;4.85;;;7.70;49.50;;;;;;4989013;28;20038;-80
2021/12/25 12:04:26;;;;;;;7.47;4.70;;;7.70;49.80;;;;;;4991535;28;20049;-79
2021/12/25 12:07:01;;;;;;;8.82;4.60;;;7.60;49.40;;;;;;4996286;28;20062;-79
2021/12/25 12:09:56;;;;;;;7.55;4.82;;;7.50;48.60;;;;;;4999314;28;20520;-79
2021/12/25 12:12:41;;;;;;;7.45;4.28;;;7.50;48.10;;;;;;4998129;28;20523;-80
2021/12/25 12:15:42;;;;;;;5.25;3.58;;;7.40;47.70;;;;;;4993713;28;20062;-80
2021/12/25 12:18:31;;;;;;;6.30;4.13;;;7.40;47.50;;;;;;5001147;28;20505;-78
2021/12/25 12:21:23;;;;;;;7.03;4.55;;;7.40;50.60;;;;;;5011826;28;20037;-80
2021/12/25 12:24:09;;;;;;;6.00;4.20;;;7.40;51.00;;;;;;4982469;28;20038;-79
2021/12/25 12:26:51;;;;;;;5.53;3.80;;;7.30;50.00;;;;;;4975836;28;20038;-79
2021/12/25 12:29:39;;;;;;;5.55;3.80;;;7.30;49.20;;;;;;4995764;28;20328;-81
2021/12/25 12:32:33;;;;;;;6.38;3.67;;;7.20;48.50;;;;;;4997527;28;20057;-80
2021/12/25 12:35:00;;;;;;;5.03;2.97;;;7.30;48.40;;;;;;4976159;28;20116;-80
2021/12/25 12:37:28;;;;;;;6.22;3.15;;;7.30;50.40;;;;;;4992125;28;20042;-79
2021/12/25 12:39:54;;;;;;;8.32;3.22;;;7.30;52.80;;;;;;4994191;28;20133;-78
2021/12/25 12:42:23;;;;;;;5.90;2.65;;;7.30;52.80;;;;;;4996739;28;20038;-79
2021/12/25 12:45:12;;;;;;;5.30;2.80;;;7.30;52.20;;;;;;4993130;28;20036;-82
2021/12/25 12:47:39;;;;;;;4.47;2.72;;;7.30;51.90;;;;;;4993214;28;20038;-80
2021/12/25 12:50:07;;;;;;;6.43;3.35;;;7.40;52.30;;;;;;4992730;28;20042;-80
2021/12/25 12:52:40;;;;;;;4.10;2.75;;;7.50;53.50;;;;;;4994898;28;20034;-80
2021/12/25 12:55:25;;;;;;;4.40;3.22;;;7.50;53.10;;;;;;4994975;28;20341;-79
2021/12/25 12:58:08;;;;;;;6.45;3.63;;;7.40;52.70;;;;;;4991770;28;20065;-80
2021/12/25 13:00:34;;;;;;;4.90;3.17;;;7.40;52.50;;;;;;4993819;28;20559;-79
2021/12/25 13:03:00;;;;;;;6.68;3.40;;;7.40;52.30;;;;;;4995546;28;20046;-79
2021/12/25 13:05:39;;;;;;;6.13;3.80;;;7.40;52.20;;;;;;5000294;28;20030;-79
2021/12/25 13:08:23;;;;;;;4.43;2.83;;;7.50;52.20;;;;;;4990830;28;20066;-80
2021/12/25 13:10:51;;;;;;;4.45;2.90;;;7.40;52.20;;;;;;4988233;28;20510;-78
2021/12/25 13:13:31;;;;;;;4.20;2.72;;;7.40;52.10;;;;;;4995180;28;20134;-78
2021/12/25 13:16:03;;;;;;;7.80;2.90;;;7.40;52.10;;;;;;4991174;28;20124;-79
2021/12/25 13:18:37;;;;;;;3.15;2.22;;;7.40;52.00;;;;;;4991783;28;20594;-78
2021/12/25 13:21:14;;;;;;;4.32;2.28;;;7.40;51.90;;;;;;4991766;28;20050;-78
2021/12/25 13:23:48;;;;;;;4.78;2.30;;;7.40;51.70;;;;;;4991219;28;20049;-78
2021/12/25 13:26:15;;;;;;;7.25;2.05;;;7.40;51.50;;;;;;4990273;28;20030;-77
2021/12/25 13:28:43;;;;;;;3.80;2.20;;;7.40;51.50;;;;;;4991528;28;20050;-78
2021/12/25 13:31:14;;;;;;;3.70;2.05;;;7.40;51.30;;;;;;4991264;28;20081;-81
2021/12/25 13:33:52;;;;;;;16.13;2.25;;;7.40;51.40;;;;;;4990422;28;20141;-79
2021/12/25 13:36:23;;;;;;;4.90;2.20;;;7.40;52.50;;;;;;4991113;28;20035;-78
2021/12/25 13:39:03;;;;;;;4.07;2.00;;;7.40;52.80;;;;;;4992354;28;20531;-79
2021/12/25 13:41:44;;;;;;;8.93;2.70;;;7.40;52.40;;;;;;4991256;28;20414;-80
2021/12/25 13:44:19;;;;;;;6.30;2.60;;;7.40;52.00;;;;;;4984120;28;20461;-84
2021/12/25 13:46:50;;;;;;;9.57;2.97;;;7.40;51.70;;;;;;4977291;28;20097;-81
2021/12/25 13:49:35;;;;;;;5.55;2.50;;;7.40;51.40;;;;;;4989395;28;20638;-80
2021/12/25 13:52:24;;;;;;;7.10;2.73;;;7.40;51.20;;;;;;4984130;28;20037;-81
2021/12/25 13:55:02;;;;;;;7.07;2.47;;;7.40;51.00;;;;;;4983441;28;20505;-80
2021/12/25 13:57:30;;;;;;;7.18;2.72;;;7.30;50.90;;;;;;4982644;28;20040;-82
2021/12/25 14:00:01;;;;;;;6.22;2.63;;;7.40;51.00;;;;;;4985830;28;20038;-82
2021/12/25 14:02:39;;;;;;;6.60;2.67;;;7.30;50.90;;;;;;4985189;28;20034;-82
2021/12/25 14:05:08;;;;;;;6.53;2.92;;;7.30;51.00;;;;;;4981674;28;20513;-81
2021/12/25 14:07:34;;;;;;;7.35;2.55;;;7.30;51.00;;;;;;4981507;28;20053;-80
2021/12/25 14:10:10;;;;;;;6.70;2.15;;;7.30;51.00;;;;;;4985080;28;20034;-80
2021/12/25 14:12:39;;;;;;;8.93;2.67;;;7.30;50.80;;;;;;4983893;28;20038;-80
2021/12/25 14:15:07;;;;;;;19.13;5.72;;;7.20;51.00;;;;;;4983791;28;20092;-81
2021/12/25 14:17:35;;;;;;;17.63;7.28;;;7.20;51.10;;;;;;4983922;28;20146;-80
2021/12/25 14:20:11;;;;;;;19.25;7.93;;;7.20;50.90;;;;;;4984677;28;20043;-83
2021/12/25 14:22:38;;;;;;;24.27;9.18;;;7.20;50.20;;;;;;4985194;28;20816;-83
2021/12/25 14:25:06;;;;;;;17.75;7.72;;;7.20;49.70;;;;;;4979299;28;20544;-83
2021/12/25 14:27:31;;;;;;;24.02;7.38;;;7.20;49.10;;;;;;4976948;28;20437;-83
2021/12/25 14:30:12;;;;;;;21.00;8.07;;;7.20;49.20;;;;;;4985443;28;20120;-83
2021/12/25 14:32:39;;;;;;;22.90;8.68;;;7.20;49.30;;;;;;4983240;28;20061;-83
2021/12/25 14:35:17;;;;;;;24.02;9.27;;;7.20;49.40;;;;;;4984113;28;20501;-83
2021/12/25 14:37:43;;;;;;;18.70;7.72;;;7.10;49.60;;;;;;4984914;28;20030;-84
2021/12/25 14:40:13;;;;;;;22.15;7.82;;;7.10;49.60;;;;;;4971845;28;20093;-82